createdAt,value
2023-02-09T00:01:17.644Z,148.55
2023-02-09T00:02:43.820Z,153.05
2023-02-09T00:04:07.951Z,145.57
2023-02-09T00:05:30.144Z,148.50
2023-02-09T00:06:56.065Z,159.65
2023-02-09T00:08:18.258Z,151.50
2023-02-09T00:09:40.923Z,146.15
2023-02-09T00:11:07.913Z,147.60
2023-02-09T00:12:50.272Z,157.85
2023-02-09T00:15:39.154Z,146.30
2023-02-09T00:17:02.868Z,150.70
2023-02-09T00:18:26.639Z,151.35
2023-02-09T00:19:50.262Z,157.80
2023-02-09T00:21:12.273Z,153.68
2023-02-09T00:22:34.952Z,157.63
2023-02-09T00:23:58.620Z,149.57
2023-02-09T00:25:21.073Z,150.68
2023-02-09T00:26:42.662Z,154.68
2023-02-09T00:28:05.526Z,165.00
2023-02-09T00:29:27.965Z,164.90
2023-02-09T00:30:52.340Z,160.23
2023-02-09T00:32:13.993Z,169.30
2023-02-09T00:33:42.293Z,168.32
2023-02-09T00:35:07.939Z,162.52
2023-02-09T00:36:31.532Z,164.93
2023-02-09T00:37:53.900Z,181.32
2023-02-09T00:39:15.053Z,179.95
2023-02-09T00:40:39.323Z,174.13
2023-02-09T00:42:08.337Z,168.18
2023-02-09T00:43:31.610Z,167.80
2023-02-09T00:44:54.248Z,160.25
2023-02-09T00:46:16.888Z,164.35
2023-02-09T00:47:39.021Z,164.52
2023-02-09T00:49:05.135Z,169.75
2023-02-09T00:50:32.680Z,176.65
2023-02-09T00:52:29.184Z,186.23
2023-02-09T00:53:51.953Z,175.15
2023-02-09T00:55:21.285Z,174.38
2023-02-09T00:56:42.589Z,175.10
2023-02-09T00:58:05.074Z,176.98
2023-02-09T00:59:37.331Z,171.40
2023-02-09T01:02:33.641Z,175.73
2023-02-09T01:03:55.318Z,173.68
2023-02-09T01:05:19.707Z,181.32
2023-02-09T01:06:42.350Z,178.90
2023-02-09T01:08:04.712Z,177.40
2023-02-09T01:09:27.776Z,178.82
2023-02-09T01:10:50.220Z,186.70
2023-02-09T01:12:13.650Z,184.70
2023-02-09T01:13:35.914Z,181.77
2023-02-09T01:14:58.042Z,172.43
2023-02-09T01:16:21.695Z,183.10
2023-02-09T01:17:43.938Z,177.85
2023-02-09T01:19:06.364Z,186.18
2023-02-09T01:20:30.180Z,184.18
2023-02-09T01:21:55.601Z,186.18
2023-02-09T01:23:20.516Z,200.25
2023-02-09T01:24:43.128Z,179.18
2023-02-09T01:26:11.079Z,199.63
2023-02-09T01:27:34.614Z,190.50
2023-02-09T01:28:59.748Z,207.25
2023-02-09T01:30:23.878Z,194.80
2023-02-09T01:31:47.157Z,195.95
2023-02-09T01:33:09.822Z,197.40
2023-02-09T01:34:30.898Z,193.82
2023-02-09T01:36:15.530Z,196.98
2023-02-09T01:37:37.910Z,193.98
2023-02-09T01:39:02.541Z,193.45
2023-02-09T01:40:24.771Z,209.95
2023-02-09T01:41:54.073Z,193.27
2023-02-09T01:43:16.700Z,202.98
2023-02-09T01:45:07.889Z,207.93
2023-02-09T01:46:34.617Z,185.63
2023-02-09T01:48:00.247Z,201.07
2023-02-09T01:49:26.500Z,201.63
2023-02-09T01:50:50.000Z,209.25
2023-02-09T01:52:22.317Z,204.77
2023-02-09T01:53:45.435Z,201.00
2023-02-09T01:55:11.517Z,195.30
2023-02-09T01:56:33.858Z,199.88
2023-02-09T01:58:00.866Z,212.05
2023-02-09T01:59:23.679Z,199.48
2023-02-09T02:00:46.896Z,197.13
2023-02-09T02:02:12.302Z,201.52
2023-02-09T02:03:34.972Z,205.65
2023-02-09T02:04:58.828Z,198.30
2023-02-09T02:06:21.466Z,213.27
2023-02-09T02:07:48.444Z,189.10
2023-02-09T02:09:14.137Z,197.73
2023-02-09T02:10:36.029Z,191.27
2023-02-09T02:11:58.526Z,189.70
2023-02-09T02:13:24.250Z,188.20
2023-02-09T02:14:46.466Z,198.45
2023-02-09T02:16:24.502Z,195.52
2023-02-09T02:18:01.382Z,196.60
2023-02-09T02:20:08.561Z,194.10
2023-02-09T02:22:03.843Z,192.88
2023-02-09T02:23:37.656Z,190.48
2023-02-09T02:25:19.595Z,193.23
2023-02-09T02:26:59.755Z,200.45
2023-02-09T02:28:41.977Z,190.48
2023-02-09T02:30:36.137Z,196.48
2023-02-09T02:32:20.483Z,182.43
2023-02-09T02:33:47.206Z,177.90
2023-02-09T02:35:17.891Z,195.88
2023-02-09T02:36:53.745Z,198.10
2023-02-09T02:38:20.025Z,187.75
2023-02-09T02:39:52.491Z,184.50
2023-02-09T02:42:50.685Z,173.48
2023-02-09T02:44:17.447Z,177.70
2023-02-09T02:45:45.178Z,181.32
2023-02-09T02:47:12.392Z,178.02
2023-02-09T02:48:39.065Z,172.25
2023-02-09T02:50:06.542Z,173.13
2023-02-09T02:51:33.505Z,170.90
2023-02-09T02:52:58.156Z,169.93
2023-02-09T02:54:26.566Z,168.07
2023-02-09T02:55:51.639Z,167.32
2023-02-09T02:57:18.314Z,157.95
2023-02-09T02:58:42.863Z,159.93
2023-02-09T03:00:12.454Z,157.25
2023-02-09T03:01:40.718Z,150.02
2023-02-09T03:03:11.721Z,142.85
2023-02-09T03:04:37.009Z,140.50
2023-02-09T03:05:59.540Z,144.88
2023-02-09T03:07:22.188Z,135.57
2023-02-09T03:08:48.905Z,132.13
2023-02-09T03:10:27.084Z,144.40
2023-02-09T03:11:53.237Z,133.65
2023-02-09T03:13:37.392Z,137.15
2023-02-09T03:15:15.542Z,151.50
2023-02-09T03:16:46.510Z,137.38
2023-02-09T03:18:21.829Z,134.60
2023-02-09T03:19:52.793Z,144.27
2023-02-09T03:21:17.466Z,165.02
2023-02-09T03:22:43.234Z,164.27
2023-02-09T03:24:08.129Z,160.90
2023-02-09T03:25:35.926Z,166.88
2023-02-09T03:27:02.479Z,168.32
2023-02-09T03:28:30.465Z,173.48
2023-02-09T03:29:56.457Z,152.00
2023-02-09T03:31:18.793Z,163.18
2023-02-09T03:32:43.671Z,164.52
2023-02-09T03:34:07.037Z,156.65
2023-02-09T03:35:37.670Z,154.52
2023-02-09T03:37:00.233Z,156.50
2023-02-09T03:38:23.110Z,158.38
2023-02-09T03:39:45.566Z,153.90
2023-02-09T03:41:09.479Z,164.60
2023-02-09T03:42:31.712Z,157.68
2023-02-09T03:44:11.337Z,162.70
2023-02-09T03:45:33.901Z,159.15
2023-02-09T03:46:56.790Z,159.55
2023-02-09T03:48:19.184Z,153.55
2023-02-09T03:49:42.985Z,159.60
2023-02-09T03:51:06.869Z,160.25
2023-02-09T03:52:31.105Z,156.30
2023-02-09T03:53:52.165Z,156.35
2023-02-09T03:55:17.047Z,156.75
2023-02-09T03:56:39.630Z,160.43
2023-02-09T03:58:01.903Z,166.02
2023-02-09T03:59:25.360Z,152.70
2023-02-09T04:00:47.853Z,166.95
2023-02-09T04:02:11.522Z,170.93
2023-02-09T04:03:33.170Z,159.98
2023-02-09T04:04:57.165Z,172.32
2023-02-09T04:06:18.491Z,169.38
2023-02-09T04:07:43.789Z,171.02
2023-02-09T04:09:06.866Z,175.52
2023-02-09T04:10:31.609Z,171.95
2023-02-09T04:11:53.744Z,170.27
2023-02-09T04:14:41.105Z,172.13
2023-02-09T04:16:02.693Z,168.68
2023-02-09T04:17:25.121Z,169.52
2023-02-09T04:18:46.775Z,175.57
2023-02-09T04:20:11.265Z,134.68
2023-02-09T04:21:32.765Z,164.57
2023-02-09T04:22:54.885Z,165.95
2023-02-09T04:24:17.354Z,162.90
2023-02-09T04:25:38.544Z,167.80
2023-02-09T04:27:01.075Z,172.25
2023-02-09T04:28:23.440Z,174.55
2023-02-09T04:29:46.068Z,173.30
2023-02-09T04:31:08.669Z,181.70
2023-02-09T04:32:41.503Z,162.30
2023-02-09T04:34:04.164Z,168.75
2023-02-09T04:35:27.136Z,169.52
2023-02-09T04:36:49.246Z,167.93
2023-02-09T04:38:10.636Z,177.90
2023-02-09T04:39:35.933Z,125.28
2023-02-09T04:41:01.275Z,167.63
2023-02-09T04:42:23.112Z,161.05
2023-02-09T04:43:46.959Z,166.38
2023-02-09T04:45:09.356Z,159.32
2023-02-09T04:46:31.823Z,167.07
2023-02-09T04:47:54.030Z,164.23
2023-02-09T04:49:16.134Z,163.50
2023-02-09T04:52:00.765Z,158.95
2023-02-09T04:53:23.995Z,157.75
2023-02-09T04:54:46.285Z,163.10
2023-02-09T04:56:09.301Z,164.40
2023-02-09T04:57:48.679Z,160.13
2023-02-09T04:59:34.051Z,162.05
2023-02-09T05:00:56.971Z,160.43
2023-02-09T05:02:19.272Z,166.10
2023-02-09T05:03:43.768Z,163.10
2023-02-09T05:05:06.333Z,163.10
2023-02-09T05:06:30.631Z,153.02
2023-02-09T05:07:51.913Z,148.50
2023-02-09T05:09:14.450Z,163.93
2023-02-09T05:10:35.957Z,155.45
2023-02-09T05:13:21.573Z,123.53
2023-02-09T05:14:44.016Z,149.13
2023-02-09T05:16:10.258Z,159.55
2023-02-09T05:17:35.067Z,167.55
2023-02-09T05:18:57.477Z,152.48
2023-02-09T05:20:22.014Z,165.13
2023-02-09T05:21:45.720Z,166.40
2023-02-09T05:23:07.062Z,163.82
2023-02-09T05:24:29.230Z,164.95
2023-02-09T05:25:51.661Z,163.43
2023-02-09T05:27:13.968Z,165.63
2023-02-09T05:28:36.323Z,157.70
2023-02-09T05:29:58.523Z,162.93
2023-02-09T05:31:20.856Z,159.20
2023-02-09T05:32:43.039Z,150.02
2023-02-09T05:34:05.140Z,165.82
2023-02-09T05:35:26.650Z,169.57
2023-02-09T05:36:50.641Z,157.73
2023-02-09T05:38:15.586Z,160.70
2023-02-09T05:39:37.808Z,164.68
2023-02-09T05:40:59.883Z,157.35
2023-02-09T05:42:21.233Z,155.40
2023-02-09T05:43:43.691Z,155.75
2023-02-09T05:45:06.500Z,153.65
2023-02-09T05:46:28.814Z,146.77
2023-02-09T05:47:54.931Z,141.18
2023-02-09T05:49:17.515Z,161.27
2023-02-09T05:50:41.905Z,144.40
2023-02-09T05:52:06.539Z,142.68
2023-02-09T05:53:28.783Z,147.57
2023-02-09T05:54:50.343Z,146.63
2023-02-09T05:56:13.497Z,143.43
2023-02-09T05:57:36.102Z,140.05
2023-02-09T05:58:58.363Z,144.25
2023-02-09T06:00:21.183Z,139.32
2023-02-09T06:01:42.623Z,138.20
2023-02-09T06:03:04.948Z,141.50
2023-02-09T06:04:27.664Z,133.45
2023-02-09T06:05:49.955Z,131.73
2023-02-09T06:07:13.649Z,126.30
2023-02-09T06:08:36.106Z,131.95
2023-02-09T06:09:57.399Z,123.82
2023-02-09T06:11:20.656Z,118.15
2023-02-09T06:12:43.203Z,141.73
2023-02-09T06:14:07.156Z,124.10
2023-02-09T06:15:29.517Z,122.82
2023-02-09T06:16:52.238Z,121.82
2023-02-09T06:18:15.344Z,137.82
2023-02-09T06:19:37.376Z,126.35
2023-02-09T06:20:59.731Z,125.32
2023-02-09T06:22:23.574Z,116.82
2023-02-09T06:23:44.924Z,117.03
2023-02-09T06:25:15.508Z,99.07
2023-02-09T06:26:38.296Z,117.85
2023-02-09T06:28:00.929Z,113.22
2023-02-09T06:29:25.867Z,108.88
2023-02-09T06:30:51.818Z,120.97
2023-02-09T06:32:16.683Z,111.85
2023-02-09T06:33:39.314Z,112.22
2023-02-09T06:35:01.337Z,110.65
2023-02-09T06:36:23.846Z,102.97
2023-02-09T06:37:47.398Z,107.43
2023-02-09T06:39:10.900Z,97.70
2023-02-09T06:40:33.212Z,97.63
2023-02-09T06:41:57.395Z,98.72
2023-02-09T06:43:18.750Z,88.45
2023-02-09T06:44:40.975Z,103.68
2023-02-09T06:46:11.969Z,100.50
2023-02-09T06:47:33.484Z,94.93
2023-02-09T06:50:21.420Z,93.97
2023-02-09T06:51:43.924Z,102.07
2023-02-09T06:53:08.036Z,92.47
2023-02-09T06:54:30.700Z,98.07
2023-02-09T06:55:52.970Z,95.03
2023-02-09T06:57:15.475Z,94.93
2023-02-09T06:58:39.650Z,96.88
2023-02-09T07:00:02.495Z,90.85
2023-02-09T07:01:25.126Z,88.85
2023-02-09T07:02:47.609Z,87.20
2023-02-09T07:04:10.134Z,84.32
2023-02-09T07:05:34.323Z,80.57
2023-02-09T07:06:57.075Z,68.05
2023-02-09T07:08:21.025Z,73.47
2023-02-09T07:09:43.322Z,61.28
2023-02-09T07:11:07.073Z,59.85
2023-02-09T07:12:31.936Z,60.30
2023-02-09T07:13:54.675Z,59.03
2023-02-09T07:15:16.704Z,64.22
2023-02-09T07:16:39.262Z,49.40
2023-02-09T07:18:01.564Z,57.35
2023-02-09T07:19:24.461Z,46.58
2023-02-09T07:20:47.112Z,57.47
2023-02-09T07:22:09.754Z,55.30
2023-02-09T07:23:36.104Z,46.80
2023-02-09T07:25:09.357Z,47.97
2023-02-09T07:26:32.287Z,47.30
2023-02-09T07:27:54.999Z,43.85
2023-02-09T07:29:21.017Z,44.00
2023-02-09T07:30:43.752Z,41.13
2023-02-09T07:32:07.372Z,37.65
2023-02-09T07:33:31.943Z,36.08
2023-02-09T07:34:54.690Z,40.20
2023-02-09T07:36:21.239Z,35.20
2023-02-09T07:37:45.384Z,37.55
2023-02-09T07:39:09.445Z,36.03
2023-02-09T07:40:35.268Z,33.03
2023-02-09T07:42:06.533Z,35.50
2023-02-09T07:43:47.960Z,33.13
2023-02-09T07:45:13.149Z,36.65
2023-02-09T07:46:38.109Z,32.17
2023-02-09T07:48:06.030Z,36.60
2023-02-09T07:49:33.532Z,34.45
2023-02-09T07:51:15.589Z,38.25
2023-02-09T07:52:37.623Z,34.05
2023-02-09T07:54:00.571Z,38.10
2023-02-09T07:55:26.929Z,37.38
2023-02-09T07:56:51.146Z,33.13
2023-02-09T07:58:14.946Z,41.20
2023-02-09T07:59:43.200Z,35.10
2023-02-09T08:01:15.078Z,34.47
2023-02-09T08:02:41.636Z,34.88
2023-02-09T08:04:04.451Z,35.83
2023-02-09T08:05:31.998Z,28.92
2023-02-09T08:06:58.697Z,30.45
2023-02-09T08:08:26.945Z,33.70
2023-02-09T08:09:51.610Z,28.77
2023-02-09T08:11:24.794Z,30.35
2023-02-09T08:13:02.284Z,32.42
2023-02-09T08:14:30.243Z,30.10
2023-02-09T08:15:57.546Z,33.13
2023-02-09T08:17:28.406Z,30.95
2023-02-09T08:19:02.458Z,30.50
2023-02-09T08:20:28.870Z,32.00
2023-02-09T08:21:52.202Z,33.45
2023-02-09T08:23:23.925Z,31.50
2023-02-09T08:24:46.360Z,29.00
2023-02-09T08:26:11.433Z,29.40
2023-02-09T08:27:39.408Z,30.95
2023-02-09T08:29:02.128Z,31.45
2023-02-09T08:30:30.642Z,34.38
2023-02-09T08:32:05.837Z,29.90
2023-02-09T08:33:32.815Z,30.85
2023-02-09T08:34:56.390Z,31.52
2023-02-09T08:36:20.480Z,29.23
2023-02-09T08:37:48.059Z,33.20
2023-02-09T08:39:11.106Z,29.10
2023-02-09T08:40:38.506Z,30.83
2023-02-09T08:42:04.330Z,27.75
2023-02-09T08:43:29.774Z,28.30
2023-02-09T08:44:52.702Z,25.58
2023-02-09T08:46:15.389Z,26.13
2023-02-09T08:47:42.602Z,26.00
2023-02-09T08:49:05.234Z,30.83
2023-02-09T08:50:27.446Z,28.75
2023-02-09T08:51:51.949Z,29.50
2023-02-09T08:53:19.735Z,27.27
2023-02-09T08:54:43.043Z,28.70
2023-02-09T08:56:11.954Z,27.52
2023-02-09T08:57:43.415Z,26.80
2023-02-09T08:59:08.802Z,29.27
2023-02-09T09:00:36.686Z,31.17
2023-02-09T09:01:59.736Z,29.88
2023-02-09T09:03:22.069Z,28.25
2023-02-09T09:04:51.618Z,28.27
2023-02-09T09:06:15.568Z,25.63
2023-02-09T09:07:43.339Z,26.27
2023-02-09T09:09:24.740Z,28.60
2023-02-09T09:10:50.644Z,31.33
2023-02-09T09:12:15.100Z,27.40
2023-02-09T09:13:37.693Z,28.02
2023-02-09T09:15:02.151Z,27.27
2023-02-09T09:16:30.667Z,31.13
2023-02-09T09:17:55.335Z,29.35
2023-02-09T09:19:18.152Z,24.70
2023-02-09T09:20:43.928Z,28.17
2023-02-09T09:22:09.634Z,28.10
2023-02-09T09:23:37.180Z,29.33
2023-02-09T09:24:59.364Z,26.48
2023-02-09T09:26:21.801Z,25.70
2023-02-09T09:27:44.976Z,23.58
2023-02-09T09:29:07.590Z,27.65
2023-02-09T09:30:32.266Z,27.88
2023-02-09T09:31:57.269Z,25.52
2023-02-09T09:33:22.104Z,23.48
2023-02-09T09:34:47.194Z,26.55
2023-02-09T09:36:12.620Z,24.88
2023-02-09T09:37:34.972Z,27.65
2023-02-09T09:41:32.906Z,24.63
2023-02-09T09:43:23.331Z,23.58
2023-02-09T09:44:48.076Z,21.70
2023-02-09T09:46:18.874Z,22.60
2023-02-09T09:47:49.277Z,24.23
2023-02-09T09:49:24.223Z,22.17
2023-02-09T09:50:47.662Z,24.60
2023-02-09T09:52:20.070Z,25.17
2023-02-09T09:55:16.686Z,24.30
2023-02-09T09:56:41.822Z,22.45
2023-02-09T09:58:07.313Z,22.45
2023-02-09T09:59:38.949Z,21.30
2023-02-09T10:01:04.476Z,23.05
2023-02-09T10:02:33.190Z,21.60
2023-02-09T10:04:02.165Z,23.70
2023-02-09T10:05:29.140Z,22.25
2023-02-09T10:07:00.358Z,19.45
2023-02-09T10:08:41.583Z,25.00
2023-02-09T10:10:19.121Z,23.80
2023-02-09T10:11:51.539Z,23.98
2023-02-09T10:13:24.786Z,22.20
2023-02-09T10:14:57.775Z,21.13
2023-02-09T10:16:25.107Z,19.60
2023-02-09T10:18:01.156Z,21.48
2023-02-09T10:19:35.967Z,25.15
2023-02-09T10:21:04.024Z,19.05
2023-02-09T10:22:31.696Z,20.10
2023-02-09T10:24:21.412Z,19.67
2023-02-09T10:26:06.401Z,21.63
2023-02-09T10:27:32.641Z,18.52
2023-02-09T10:28:57.482Z,19.55
2023-02-09T10:30:33.332Z,17.63
2023-02-09T10:32:07.697Z,20.05
2023-02-09T10:33:44.470Z,20.13
2023-02-09T10:35:29.391Z,19.52
2023-02-09T10:36:53.268Z,19.60
2023-02-09T10:38:19.248Z,19.35
2023-02-09T10:39:43.647Z,21.30
2023-02-09T10:41:11.672Z,18.20
2023-02-09T10:42:36.041Z,18.80
2023-02-09T10:44:04.959Z,22.38
2023-02-09T10:45:30.830Z,19.77
2023-02-09T10:47:11.239Z,17.65
2023-02-09T10:48:44.611Z,22.55
2023-02-09T10:50:19.354Z,18.08
2023-02-09T10:51:44.093Z,20.88
2023-02-09T10:53:21.318Z,20.80
2023-02-09T10:54:44.893Z,15.38
2023-02-09T10:56:12.018Z,23.65
2023-02-09T10:57:38.506Z,19.45
2023-02-09T10:59:04.897Z,19.13
2023-02-09T11:00:34.251Z,20.45
2023-02-09T11:01:59.213Z,25.10
2023-02-09T11:03:25.483Z,21.35
2023-02-09T11:04:49.619Z,21.83
2023-02-09T11:06:17.853Z,20.85
2023-02-09T11:07:43.649Z,19.48
2023-02-09T11:09:18.279Z,21.35
2023-02-09T11:10:50.478Z,16.92
2023-02-09T11:12:14.240Z,19.40
2023-02-09T11:13:37.141Z,19.55
2023-02-09T11:15:02.957Z,20.23
2023-02-09T11:16:49.034Z,17.90
2023-02-09T11:18:19.520Z,16.83
2023-02-09T11:20:00.588Z,20.40
2023-02-09T11:21:35.284Z,19.33
2023-02-09T11:23:31.990Z,20.27
2023-02-09T11:25:03.707Z,19.27
2023-02-09T11:26:39.542Z,19.77
2023-02-09T11:28:28.492Z,18.55
2023-02-09T11:29:59.315Z,20.05
2023-02-09T11:31:44.545Z,18.45
2023-02-09T11:33:12.507Z,18.83
2023-02-09T11:35:03.673Z,15.18
2023-02-09T11:36:47.717Z,18.55
2023-02-09T11:38:16.357Z,16.67
2023-02-09T11:39:45.909Z,19.27
2023-02-09T11:41:27.405Z,19.35
2023-02-09T11:42:58.538Z,20.83
2023-02-09T11:44:28.594Z,23.00
2023-02-09T11:45:52.058Z,23.10
2023-02-09T11:47:19.632Z,18.48
2023-02-09T11:48:48.750Z,18.88
2023-02-09T11:50:21.350Z,18.67
2023-02-09T11:51:47.802Z,19.25
2023-02-09T11:53:21.699Z,17.83
2023-02-09T11:54:52.340Z,19.48
2023-02-09T11:56:16.655Z,16.85
2023-02-09T11:57:46.572Z,24.65
2023-02-09T11:59:17.795Z,17.83
2023-02-09T12:00:56.287Z,13.02
2023-02-09T12:02:33.007Z,18.65
2023-02-09T12:04:05.160Z,21.90
2023-02-09T12:05:29.782Z,15.02
2023-02-09T12:06:55.790Z,21.30
2023-02-09T12:08:50.334Z,20.02
2023-02-09T12:10:21.450Z,18.65
2023-02-09T12:11:57.376Z,18.20
2023-02-09T12:13:35.069Z,17.10
2023-02-09T12:15:04.610Z,15.43
2023-02-09T12:16:30.560Z,18.40
2023-02-09T12:18:00.614Z,19.80
2023-02-09T12:19:31.678Z,19.38
2023-02-09T12:20:58.394Z,20.17
2023-02-09T12:22:49.661Z,18.45
2023-02-09T12:24:34.171Z,20.83
2023-02-09T12:26:00.172Z,20.35
2023-02-09T12:27:28.129Z,16.70
2023-02-09T12:29:03.799Z,18.98
2023-02-09T12:31:01.425Z,20.30
2023-02-09T12:32:44.071Z,14.93
2023-02-09T12:34:16.321Z,19.05
2023-02-09T12:37:27.243Z,19.02
2023-02-09T12:39:06.581Z,17.70
2023-02-09T12:40:37.767Z,20.63
2023-02-09T12:42:42.480Z,18.45
2023-02-09T12:44:39.513Z,19.17
2023-02-09T12:46:17.962Z,16.05
2023-02-09T12:47:46.228Z,16.20
2023-02-09T12:49:21.015Z,17.17
2023-02-09T12:50:55.299Z,19.50
2023-02-09T12:52:20.003Z,17.52
2023-02-09T12:53:47.468Z,18.02
2023-02-09T12:55:35.630Z,16.48
2023-02-09T12:56:58.470Z,19.20
2023-02-09T12:58:40.636Z,20.05
2023-02-09T13:00:43.830Z,18.67
2023-02-09T13:02:18.191Z,16.40
2023-02-09T13:03:46.287Z,22.08
2023-02-09T13:05:13.093Z,24.92
2023-02-09T13:06:42.252Z,25.52
2023-02-09T13:08:16.698Z,16.33
2023-02-09T13:09:46.570Z,19.33
2023-02-09T13:11:24.664Z,20.15
2023-02-09T13:12:53.325Z,21.40
2023-02-09T13:14:18.079Z,20.27
2023-02-09T13:15:53.446Z,21.42
2023-02-09T13:17:38.252Z,18.52
2023-02-09T13:19:14.278Z,20.20
2023-02-09T13:21:09.082Z,22.23
2023-02-09T13:22:47.032Z,21.73
2023-02-09T13:24:16.497Z,24.05
2023-02-09T13:25:44.538Z,21.30
2023-02-09T13:27:19.450Z,18.80
2023-02-09T13:28:41.926Z,20.95
2023-02-09T13:30:06.196Z,20.88
2023-02-09T13:31:37.025Z,20.15
2023-02-09T13:33:09.527Z,24.27
2023-02-09T13:34:42.307Z,24.75
2023-02-09T13:36:24.695Z,23.38
2023-02-09T13:37:49.437Z,18.35
2023-02-09T13:39:23.165Z,24.63
2023-02-09T13:40:50.432Z,28.80
2023-02-09T13:42:21.855Z,24.05
2023-02-09T13:43:48.370Z,25.83
2023-02-09T13:45:19.559Z,26.70
2023-02-09T13:46:41.730Z,22.30
2023-02-09T13:48:15.228Z,24.85
2023-02-09T13:49:37.552Z,24.92
2023-02-09T13:51:02.732Z,26.17
2023-02-09T13:52:26.937Z,22.73
2023-02-09T13:53:58.271Z,29.17
2023-02-09T13:55:27.153Z,30.20
2023-02-09T13:56:52.861Z,26.63
2023-02-09T13:58:24.670Z,33.60
2023-02-09T13:59:50.228Z,27.05
2023-02-09T14:01:18.197Z,25.70
2023-02-09T14:02:48.380Z,25.63
2023-02-09T14:04:17.058Z,24.00
2023-02-09T14:05:43.885Z,27.70
2023-02-09T14:07:14.855Z,27.73
2023-02-09T14:08:41.349Z,27.83
2023-02-09T14:10:20.190Z,24.85
2023-02-09T14:11:49.989Z,25.30
2023-02-09T14:13:19.721Z,27.15
2023-02-09T14:15:03.040Z,23.48
2023-02-09T14:16:28.236Z,22.85
2023-02-09T14:17:53.996Z,27.58
2023-02-09T14:19:27.630Z,29.05
2023-02-09T14:21:10.689Z,30.67
2023-02-09T14:22:35.932Z,24.83
2023-02-09T14:24:17.733Z,23.65
2023-02-09T14:25:40.464Z,28.05
2023-02-09T14:27:18.303Z,23.13
2023-02-09T14:28:40.896Z,25.42
2023-02-09T14:30:03.428Z,26.80
2023-02-09T14:31:28.055Z,25.85
2023-02-09T14:32:55.759Z,25.83
2023-02-09T14:34:25.626Z,27.02
2023-02-09T14:35:56.122Z,26.48
2023-02-09T14:37:31.954Z,30.75
2023-02-09T14:39:05.754Z,25.17
2023-02-09T14:40:34.414Z,32.08
2023-02-09T14:42:18.627Z,25.70
2023-02-09T14:43:41.186Z,28.98
2023-02-09T14:45:30.828Z,25.95
2023-02-09T14:46:54.788Z,27.23
2023-02-09T14:48:26.795Z,29.60
2023-02-09T14:49:49.272Z,27.38
2023-02-09T14:51:18.613Z,27.13
2023-02-09T14:52:46.758Z,31.83
2023-02-09T14:54:25.947Z,27.52
2023-02-09T14:55:49.239Z,27.73
2023-02-09T14:57:14.529Z,30.50
2023-02-09T14:58:41.325Z,28.05
2023-02-09T15:00:15.005Z,29.27
2023-02-09T15:01:37.770Z,31.30
2023-02-09T15:03:00.444Z,27.40
2023-02-09T15:04:23.317Z,38.78
2023-02-09T15:05:46.863Z,30.33
2023-02-09T15:07:17.498Z,31.75
2023-02-09T15:08:44.156Z,30.30
2023-02-09T15:10:17.128Z,28.55
2023-02-09T15:11:56.464Z,33.50
2023-02-09T15:13:21.244Z,36.38
2023-02-09T15:14:45.597Z,32.97
2023-02-09T15:16:09.965Z,31.38
2023-02-09T15:17:33.015Z,33.88
2023-02-09T15:18:55.601Z,31.83
2023-02-09T15:20:21.492Z,30.48
2023-02-09T15:21:44.157Z,35.28
2023-02-09T15:23:09.866Z,32.42
2023-02-09T15:24:32.177Z,35.05
2023-02-09T15:25:54.878Z,32.70
2023-02-09T15:27:25.191Z,31.10
2023-02-09T15:28:49.427Z,30.58
2023-02-09T15:30:15.674Z,32.55
2023-02-09T15:31:41.100Z,34.55
2023-02-09T15:33:03.631Z,33.90
2023-02-09T15:34:26.150Z,32.80
2023-02-09T15:35:49.362Z,37.08
2023-02-09T15:37:22.308Z,32.92
2023-02-09T15:38:44.553Z,33.33
2023-02-09T15:40:44.007Z,35.25
2023-02-09T15:42:32.731Z,37.72
2023-02-09T15:44:14.128Z,33.88
2023-02-09T15:46:05.975Z,39.00
2023-02-09T15:47:46.370Z,36.97
2023-02-09T15:49:08.720Z,32.05
2023-02-09T15:50:33.027Z,34.97
2023-02-09T15:51:55.474Z,40.78
2023-02-09T15:53:21.415Z,37.92
2023-02-09T15:54:44.603Z,39.20
2023-02-09T15:56:10.973Z,36.95
2023-02-09T15:57:32.526Z,38.28
2023-02-09T15:59:00.193Z,39.50
2023-02-09T16:00:35.104Z,42.60
2023-02-09T16:02:07.000Z,38.40
2023-02-09T16:03:31.996Z,36.72
2023-02-09T16:04:58.033Z,34.25
2023-02-09T16:06:25.996Z,37.15
2023-02-09T16:07:50.695Z,36.40
2023-02-09T16:09:18.976Z,37.20
2023-02-09T16:10:41.583Z,41.38
2023-02-09T16:12:05.231Z,41.42
2023-02-09T16:13:30.854Z,37.78
2023-02-09T16:14:54.545Z,38.40
2023-02-09T16:16:17.942Z,37.55
2023-02-09T16:17:41.766Z,36.10
2023-02-09T16:19:05.358Z,38.05
2023-02-09T16:20:31.108Z,36.85
2023-02-09T16:22:00.455Z,41.97
2023-02-09T16:23:47.969Z,40.50
2023-02-09T16:25:21.802Z,40.92
2023-02-09T16:26:44.245Z,43.97
2023-02-09T16:28:06.665Z,43.50
2023-02-09T16:29:29.168Z,40.95
2023-02-09T16:30:55.391Z,38.25
2023-02-09T16:32:22.975Z,44.03
2023-02-09T16:33:46.644Z,40.80
2023-02-09T16:35:16.798Z,43.28
2023-02-09T16:36:42.715Z,43.10
2023-02-09T16:38:16.649Z,46.38
2023-02-09T16:39:41.811Z,41.58
2023-02-09T16:41:04.479Z,37.90
2023-02-09T16:42:26.298Z,40.83
2023-02-09T16:43:52.065Z,37.40
2023-02-09T16:45:16.603Z,38.40
2023-02-09T16:46:44.831Z,37.75
2023-02-09T16:48:20.245Z,38.97
2023-02-09T16:51:07.600Z,37.65
2023-02-09T16:52:32.863Z,48.70
2023-02-09T16:53:55.712Z,42.33
2023-02-09T16:55:25.403Z,45.15
2023-02-09T16:56:54.125Z,45.67
2023-02-09T16:58:21.627Z,44.67
2023-02-09T16:59:46.830Z,39.85
2023-02-09T17:01:17.059Z,39.33
2023-02-09T17:02:44.356Z,35.85
2023-02-09T17:04:09.661Z,41.95
2023-02-09T17:05:35.103Z,40.22
2023-02-09T17:06:57.806Z,39.53
2023-02-09T17:08:21.929Z,44.47
2023-02-09T17:10:35.734Z,39.15
2023-02-09T17:12:00.978Z,40.40
2023-02-09T17:13:25.913Z,39.85
2023-02-09T17:14:51.618Z,41.15
2023-02-09T17:16:22.906Z,40.97
2023-02-09T17:17:50.627Z,42.45
2023-02-09T17:19:18.248Z,42.88
2023-02-09T17:20:52.988Z,42.85
2023-02-09T17:22:15.646Z,38.80
2023-02-09T17:23:38.890Z,39.05
2023-02-09T17:25:01.702Z,48.38
2023-02-09T17:26:24.176Z,41.13
2023-02-09T17:27:50.091Z,42.30
2023-02-09T17:29:13.234Z,43.35
2023-02-09T17:30:45.263Z,43.78
2023-02-09T17:32:31.246Z,39.78
2023-02-09T17:34:04.982Z,46.08
2023-02-09T17:37:31.373Z,46.72
2023-02-09T17:38:56.255Z,44.28
2023-02-09T17:40:22.901Z,46.72
2023-02-09T17:41:50.072Z,49.17
2023-02-09T17:43:12.710Z,42.25
2023-02-09T17:48:18.389Z,49.38
2023-02-09T17:50:12.759Z,48.83
2023-02-09T17:52:48.878Z,45.70
2023-02-09T17:54:38.385Z,46.97
2023-02-09T17:56:19.545Z,44.10
2023-02-09T17:58:00.201Z,44.67
2023-02-09T18:04:20.958Z,42.78
2023-02-09T18:11:47.002Z,48.55
2023-02-09T18:13:29.165Z,36.60
2023-02-09T18:14:51.704Z,45.83
2023-02-09T18:16:17.934Z,42.65
2023-02-09T18:17:46.600Z,46.42
2023-02-09T18:22:27.019Z,44.92
2023-02-09T18:23:51.467Z,45.67
2023-02-09T18:25:36.474Z,41.75
2023-02-09T18:30:24.670Z,47.28
2023-02-09T18:31:52.654Z,52.47
2023-02-09T18:33:44.926Z,45.65
2023-02-09T18:35:46.438Z,39.22
2023-02-09T18:38:37.645Z,42.40
2023-02-09T18:40:25.158Z,43.47
2023-02-09T18:44:41.278Z,44.40
2023-02-09T18:46:04.896Z,41.40
2023-02-09T18:48:33.669Z,41.10
2023-02-09T18:49:48.112Z,39.10
2023-02-09T18:51:24.693Z,37.83
2023-02-09T18:55:22.317Z,35.38
2023-02-09T19:03:01.401Z,40.17
2023-02-09T19:04:30.644Z,44.72
2023-02-09T19:06:45.214Z,47.67
2023-02-09T19:11:28.457Z,39.45
2023-02-09T19:12:59.673Z,39.80
2023-02-09T19:20:05.892Z,41.15
2023-02-09T19:21:52.310Z,41.65
2023-02-09T19:30:06.515Z,40.38
2023-02-09T19:31:37.560Z,40.85
2023-02-09T19:32:53.785Z,44.30
2023-02-09T19:38:30.581Z,41.83
2023-02-09T19:42:43.729Z,40.45
2023-02-09T19:44:34.170Z,39.65
2023-02-09T19:46:41.616Z,37.60
2023-02-09T19:49:13.420Z,36.10
2023-02-09T19:53:00.685Z,41.50
2023-02-09T19:54:59.001Z,45.25
2023-02-09T19:56:26.655Z,42.95
2023-02-09T19:57:56.453Z,40.13
2023-02-09T19:59:19.291Z,40.15
2023-02-09T20:00:44.841Z,47.90
2023-02-09T20:02:07.621Z,51.25
2023-02-09T20:03:32.600Z,48.05
2023-02-09T20:04:57.220Z,46.15